Time;durP1;ratioP1;P1;durP2;ratioP2;P2;SDS_P1;SDS_P2;PMS_P1;PMS_P2;Temp;Humidity;BMP_temperature;BMP_pressure;BME280_temperature;BME280_humidity;BME280_pressure;Samples;Min_cycle;Max_cycle;Signal;HPM_P1;HPM_P2
2021/06/14 00:01:36;;;;;;;6.63;1.20;;;17.30;99.90;;;;;;5048040;28;20029;-67
2021/06/14 00:04:02;;;;;;;5.05;1.20;;;17.20;99.90;;;;;;5048980;28;20119;-67
2021/06/14 00:06:28;;;;;;;3.55;1.13;;;17.20;99.90;;;;;;5048992;28;20112;-67
2021/06/14 00:08:53;;;;;;;6.75;1.13;;;17.20;99.90;;;;;;5050856;28;20044;-65
2021/06/14 00:11:19;;;;;;;3.97;1.17;;;17.20;99.90;;;;;;5049300;28;20025;-67
2021/06/14 00:13:45;;;;;;;2.88;1.20;;;17.20;99.90;;;;;;5047561;28;20060;-68
2021/06/14 00:16:11;;;;;;;5.00;1.50;;;17.20;99.90;;;;;;5046943;28;20076;-67
2021/06/14 00:18:37;;;;;;;5.97;1.30;;;17.20;99.90;;;;;;5046310;28;20033;-67
2021/06/14 00:21:09;;;;;;;3.70;1.45;;;17.20;99.90;;;;;;5046993;28;20037;-67
2021/06/14 00:23:35;;;;;;;7.95;1.58;;;17.20;99.90;;;;;;5043913;28;20449;-66
2021/06/14 00:26:03;;;;;;;7.03;1.77;;;17.20;99.90;;;;;;5047366;28;20370;-68
2021/06/14 00:28:29;;;;;;;3.70;1.52;;;17.20;99.90;;;;;;5047077;28;20043;-67
2021/06/14 00:30:55;;;;;;;3.53;1.20;;;17.10;99.90;;;;;;5047027;28;20409;-67
2021/06/14 00:33:21;;;;;;;3.80;1.17;;;17.10;99.90;;;;;;5045537;28;20040;-67
2021/06/14 00:35:47;;;;;;;6.75;1.45;;;17.00;99.90;;;;;;5047195;28;20029;-67
2021/06/14 00:38:15;;;;;;;4.13;1.23;;;17.00;99.90;;;;;;5047229;28;20048;-68
2021/06/14 00:40:41;;;;;;;4.70;1.20;;;17.00;99.90;;;;;;5045293;28;20124;-68
2021/06/14 00:43:08;;;;;;;3.25;1.60;;;17.00;99.90;;;;;;5047500;28;20116;-66
2021/06/14 00:45:37;;;;;;;3.22;1.17;;;16.90;99.90;;;;;;5046869;28;20480;-67
2021/06/14 00:48:04;;;;;;;6.10;1.50;;;16.80;99.90;;;;;;5045978;28;20028;-68
2021/06/14 00:50:42;;;;;;;7.00;1.42;;;16.80;99.90;;;;;;5046532;28;20091;-67
2021/06/14 00:53:11;;;;;;;5.03;1.35;;;16.70;99.90;;;;;;5047248;28;20051;-66
2021/06/14 00:55:37;;;;;;;5.20;1.52;;;16.70;99.90;;;;;;5046943;28;20037;-67
2021/06/14 00:58:04;;;;;;;9.90;1.67;;;16.60;99.90;;;;;;5047750;28;20087;-67
2021/06/14 01:00:29;;;;;;;3.38;1.30;;;16.60;99.90;;;;;;5046488;28;20067;-67
2021/06/14 01:02:55;;;;;;;3.83;1.23;;;16.50;99.90;;;;;;5047561;28;20052;-67
2021/06/14 01:05:22;;;;;;;4.00;1.55;;;16.50;99.90;;;;;;5045762;28;20028;-70
2021/06/14 01:07:48;;;;;;;3.50;1.30;;;16.60;99.90;;;;;;5046208;28;20507;-67
2021/06/14 01:10:15;;;;;;;6.18;1.65;;;16.60;99.90;;;;;;5046505;28;20037;-67
2021/06/14 01:13:11;;;;;;;3.45;1.23;;;16.50;99.90;;;;;;5046417;28;20037;-66
2021/06/14 01:15:59;;;;;;;6.82;1.60;;;16.60;99.90;;;;;;5044917;28;20116;-67
2021/06/14 01:18:47;;;;;;;6.13;1.58;;;16.60;99.90;;;;;;5043457;28;20029;-68
2021/06/14 01:21:37;;;;;;;6.20;1.55;;;16.60;99.90;;;;;;5046136;28;20045;-66
2021/06/14 01:24:25;;;;;;;5.45;1.65;;;16.60;99.90;;;;;;5038122;28;20033;-65
2021/06/14 01:27:07;;;;;;;3.78;1.42;;;16.60;99.90;;;;;;5046129;28;20543;-68
2021/06/14 01:29:34;;;;;;;3.15;1.45;;;16.50;99.90;;;;;;5025898;28;20028;-68
2021/06/14 01:32:01;;;;;;;5.03;1.70;;;16.50;99.90;;;;;;5046122;28;21658;-68
2021/06/14 01:34:29;;;;;;;5.55;1.77;;;16.50;99.90;;;;;;5047150;28;20143;-67
2021/06/14 01:36:57;;;;;;;8.30;1.77;;;16.50;99.90;;;;;;5046193;28;20029;-67
2021/06/14 01:39:26;;;;;;;5.00;1.60;;;16.50;99.90;;;;;;5046840;28;20029;-67
2021/06/14 01:41:54;;;;;;;9.70;2.45;;;16.40;99.90;;;;;;5045834;28;20553;-67
2021/06/14 01:44:22;;;;;;;10.60;2.45;;;16.40;99.90;;;;;;5047030;28;20094;-67
2021/06/14 01:46:49;;;;;;;7.00;1.88;;;16.40;99.90;;;;;;5046575;28;20025;-67
2021/06/14 01:49:16;;;;;;;4.82;1.60;;;16.30;99.90;;;;;;5046834;28;20041;-66
2021/06/14 01:51:41;;;;;;;7.50;2.17;;;16.30;99.90;;;;;;5045995;28;20079;-67
2021/06/14 01:54:07;;;;;;;11.00;2.10;;;16.30;99.90;;;;;;5045136;28;20029;-67
2021/06/14 01:56:40;;;;;;;4.80;1.65;;;16.20;99.90;;;;;;5046444;28;20041;-67
2021/06/14 01:59:08;;;;;;;8.57;2.08;;;16.10;99.90;;;;;;5044634;28;20041;-65
2021/06/14 02:01:36;;;;;;;3.80;1.80;;;16.10;99.90;;;;;;5045871;28;20048;-67
2021/06/14 02:04:02;;;;;;;6.25;2.28;;;16.10;99.90;;;;;;5046037;28;20059;-67
2021/06/14 02:06:35;;;;;;;4.63;2.05;;;16.00;99.90;;;;;;5046867;28;20083;-67
2021/06/14 02:09:07;;;;;;;7.82;2.28;;;16.00;99.90;;;;;;5044705;28;20385;-67
2021/06/14 02:11:34;;;;;;;5.35;2.22;;;15.90;99.90;;;;;;5045520;28;20496;-67
2021/06/14 02:14:01;;;;;;;10.15;2.15;;;15.90;99.90;;;;;;5047338;28;20377;-66
2021/06/14 02:16:28;;;;;;;4.70;1.75;;;15.80;99.90;;;;;;5047463;28;20495;-67
2021/06/14 02:18:55;;;;;;;8.88;2.30;;;15.80;99.90;;;;;;5047199;28;20098;-68
2021/06/14 02:21:21;;;;;;;6.75;2.65;;;15.80;99.90;;;;;;5047325;28;20033;-67
2021/06/14 02:23:47;;;;;;;5.25;2.15;;;15.70;99.90;;;;;;5047440;28;20033;-66
2021/06/14 02:26:13;;;;;;;6.97;3.05;;;15.70;99.90;;;;;;5060910;28;20083;-69
2021/06/14 02:28:39;;;;;;;7.05;2.30;;;15.70;99.90;;;;;;5062913;28;20037;-66
2021/06/14 02:31:05;;;;;;;7.82;2.55;;;15.60;99.90;;;;;;5061002;28;20028;-67
2021/06/14 02:33:31;;;;;;;9.20;3.20;;;15.60;99.90;;;;;;5047774;28;20029;-69
2021/06/14 02:35:57;;;;;;;5.93;2.40;;;15.60;99.90;;;;;;5046555;28;20053;-70
2021/06/14 02:38:24;;;;;;;6.18;2.17;;;15.50;99.90;;;;;;5046549;28;20040;-67
2021/06/14 02:40:50;;;;;;;11.13;2.63;;;15.50;99.90;;;;;;5046813;28;20456;-66
2021/06/14 02:43:19;;;;;;;6.75;2.50;;;15.50;99.90;;;;;;5050164;28;20029;-67
2021/06/14 02:45:45;;;;;;;8.55;2.92;;;15.50;99.90;;;;;;5050688;28;20033;-67
2021/06/14 02:48:12;;;;;;;7.65;3.00;;;15.40;99.90;;;;;;5049644;28;20036;-68
2021/06/14 02:50:40;;;;;;;7.57;3.15;;;15.40;99.90;;;;;;5051421;28;20052;-67
2021/06/14 02:53:09;;;;;;;6.82;2.45;;;15.40;99.90;;;;;;5051901;28;20029;-67
2021/06/14 02:55:49;;;;;;;13.40;3.47;;;15.40;99.90;;;;;;5059960;28;20033;-67
2021/06/14 02:58:26;;;;;;;10.20;2.88;;;15.40;99.90;;;;;;5059737;28;20105;-67
2021/06/14 03:00:52;;;;;;;7.72;3.08;;;15.40;99.90;;;;;;5059781;28;20032;-68
2021/06/14 03:03:18;;;;;;;7.25;2.15;;;15.50;99.90;;;;;;5053396;28;20033;-67
2021/06/14 03:05:45;;;;;;;9.25;2.92;;;15.50;99.90;;;;;;5049597;28;20036;-67
2021/06/14 03:08:11;;;;;;;8.68;3.03;;;15.50;99.90;;;;;;5048552;28;20079;-67
2021/06/14 03:10:36;;;;;;;12.02;3.00;;;15.50;99.90;;;;;;5048664;28;20175;-66
2021/06/14 03:13:04;;;;;;;10.07;3.30;;;15.60;99.90;;;;;;5048069;28;20308;-67
2021/06/14 03:15:32;;;;;;;10.82;2.92;;;15.50;99.90;;;;;;5049108;28;20041;-67
2021/06/14 03:17:59;;;;;;;8.18;3.17;;;15.50;99.90;;;;;;5049045;28;20029;-67
2021/06/14 03:20:25;;;;;;;8.23;3.08;;;15.50;99.90;;;;;;5048157;28;20086;-67
2021/06/14 03:22:52;;;;;;;6.85;3.13;;;15.50;99.90;;;;;;5048603;28;20045;-67
2021/06/14 03:25:19;;;;;;;6.68;3.10;;;15.50;99.90;;;;;;5048124;28;20041;-67
2021/06/14 03:27:45;;;;;;;7.97;3.15;;;15.50;99.90;;;;;;5047151;28;20112;-66
2021/06/14 03:30:12;;;;;;;6.15;2.75;;;15.50;99.90;;;;;;5043169;28;20089;-67
2021/06/14 03:32:44;;;;;;;8.68;3.08;;;15.50;99.90;;;;;;5047814;28;20041;-67
2021/06/14 03:35:16;;;;;;;8.68;3.45;;;15.50;99.90;;;;;;5047831;28;20033;-69
2021/06/14 03:37:42;;;;;;;8.05;2.72;;;15.50;99.90;;;;;;5048315;28;20481;-66
2021/06/14 03:40:11;;;;;;;10.18;2.85;;;15.50;99.90;;;;;;5048004;28;20037;-66
2021/06/14 03:42:37;;;;;;;10.65;3.03;;;15.50;99.90;;;;;;5047756;28;20327;-67
2021/06/14 03:45:04;;;;;;;10.73;3.25;;;15.50;99.90;;;;;;5048583;28;20751;-67
2021/06/14 03:47:29;;;;;;;10.15;3.22;;;15.40;99.90;;;;;;5047911;28;20041;-66
2021/06/14 03:49:55;;;;;;;8.90;3.10;;;15.40;99.90;;;;;;5048290;28;20041;-67
2021/06/14 03:52:20;;;;;;;8.70;3.50;;;15.40;99.90;;;;;;5046806;28;20037;-67
2021/06/14 03:54:46;;;;;;;6.03;3.28;;;15.40;99.90;;;;;;5048564;28;20033;-66
2021/06/14 03:57:12;;;;;;;12.00;3.25;;;15.40;99.90;;;;;;5047018;28;20044;-67
2021/06/14 03:59:37;;;;;;;8.43;4.05;;;15.40;99.90;;;;;;5046057;28;20107;-67
2021/06/14 04:02:03;;;;;;;6.63;2.92;;;15.30;99.90;;;;;;5047933;28;20049;-66
2021/06/14 04:06:57;;;;;;;7.65;3.65;;;15.40;99.90;;;;;;5048345;28;20047;-66
2021/06/14 04:09:22;;;;;;;7.72;3.47;;;15.50;99.90;;;;;;5047582;28;20650;-67
2021/06/14 04:11:48;;;;;;;10.05;3.70;;;15.60;99.90;;;;;;5047442;28;20033;-65
2021/06/14 04:14:14;;;;;;;8.65;3.33;;;15.70;99.90;;;;;;5048003;28;20627;-66
2021/06/14 04:16:39;;;;;;;9.18;3.25;;;15.70;99.90;;;;;;5047758;28;20096;-66
2021/06/14 04:19:05;;;;;;;10.30;3.60;;;15.80;99.90;;;;;;5048091;28;20025;-68
2021/06/14 04:21:31;;;;;;;8.10;3.22;;;15.80;99.90;;;;;;5044198;28;20524;-67
2021/06/14 04:23:56;;;;;;;8.85;3.47;;;15.80;99.90;;;;;;5047997;28;20033;-67
2021/06/14 04:26:22;;;;;;;8.50;3.35;;;15.80;99.90;;;;;;5047625;28;20029;-67
2021/06/14 04:28:47;;;;;;;7.32;3.20;;;15.70;99.90;;;;;;5046810;28;20029;-67
2021/06/14 04:31:13;;;;;;;11.90;3.65;;;15.80;99.90;;;;;;5047041;28;20515;-67
2021/06/14 04:33:38;;;;;;;8.13;3.88;;;15.80;99.90;;;;;;5045757;28;20029;-67
2021/06/14 04:36:04;;;;;;;10.15;3.45;;;15.80;99.90;;;;;;5047395;28;20061;-67
2021/06/14 04:38:31;;;;;;;9.70;3.90;;;15.80;99.90;;;;;;5047788;28;20064;-67
2021/06/14 04:40:57;;;;;;;9.93;3.85;;;15.80;99.90;;;;;;5047539;28;20035;-65
2021/06/14 04:43:22;;;;;;;13.40;4.38;;;15.90;99.90;;;;;;5047515;28;20383;-66
2021/06/14 04:45:48;;;;;;;11.40;3.60;;;15.90;99.90;;;;;;5046184;28;20037;-68
2021/06/14 04:48:13;;;;;;;9.02;3.97;;;15.90;99.90;;;;;;5045610;28;20048;-67
2021/06/14 04:50:39;;;;;;;11.13;3.42;;;15.90;99.90;;;;;;5036883;28;20033;-66
2021/06/14 04:53:04;;;;;;;9.60;4.03;;;16.00;99.90;;;;;;5035532;28;20029;-67
2021/06/14 04:55:30;;;;;;;13.60;4.35;;;16.00;99.90;;;;;;5037847;28;20029;-67
2021/06/14 04:57:55;;;;;;;12.27;4.25;;;16.10;99.90;;;;;;5040240;28;20374;-67
2021/06/14 05:00:22;;;;;;;10.05;4.28;;;16.20;99.90;;;;;;5039038;28;20115;-66
2021/06/14 05:02:49;;;;;;;11.98;4.43;;;16.30;99.90;;;;;;5036173;28;20051;-67
2021/06/14 05:05:15;;;;;;;9.25;4.05;;;16.30;99.90;;;;;;5036513;28;20163;-67
2021/06/14 05:07:40;;;;;;;8.60;4.03;;;16.40;99.90;;;;;;5038230;28;20128;-65
2021/06/14 05:10:06;;;;;;;18.15;6.38;;;16.50;99.90;;;;;;5041680;28;20501;-66
2021/06/14 05:12:32;;;;;;;9.27;4.22;;;16.60;99.90;;;;;;5038128;28;20044;-67
2021/06/14 05:14:58;;;;;;;13.00;4.35;;;16.60;99.90;;;;;;5039899;28;20037;-68
2021/06/14 05:17:23;;;;;;;13.05;4.53;;;16.70;99.90;;;;;;5037208;28;20034;-67
2021/06/14 05:19:49;;;;;;;12.48;4.80;;;16.80;99.90;;;;;;5041409;28;20041;-66
2021/06/14 05:22:15;;;;;;;10.90;4.15;;;16.90;99.90;;;;;;5038517;28;20048;-67
2021/06/14 05:24:41;;;;;;;8.82;4.28;;;16.90;99.90;;;;;;5038461;28;20029;-68
2021/06/14 05:27:07;;;;;;;12.00;4.15;;;17.00;99.90;;;;;;5039051;28;20037;-66
2021/06/14 05:29:33;;;;;;;13.63;4.75;;;17.10;99.90;;;;;;5043063;28;20056;-66
2021/06/14 05:31:58;;;;;;;14.20;4.25;;;17.30;99.90;;;;;;5034739;28;20076;-67
2021/06/14 05:34:24;;;;;;;9.38;4.57;;;17.60;99.90;;;;;;5038918;28;20108;-67
2021/06/14 05:36:50;;;;;;;14.18;4.75;;;18.00;99.90;;;;;;5039415;28;20086;-65
2021/06/14 05:39:16;;;;;;;15.40;4.35;;;18.20;99.90;;;;;;5038885;28;20044;-68
2021/06/14 05:41:42;;;;;;;10.85;3.90;;;18.50;99.90;;;;;;5039206;28;20485;-67
2021/06/14 05:44:09;;;;;;;10.07;4.13;;;18.80;99.90;;;;;;5033925;28;20525;-67
2021/06/14 05:46:34;;;;;;;11.88;5.07;;;19.00;99.90;;;;;;5035457;28;20045;-67
2021/06/14 05:49:02;;;;;;;10.05;3.90;;;19.20;99.90;;;;;;5034255;28;20043;-67
2021/06/14 05:51:29;;;;;;;13.65;5.63;;;19.40;99.90;;;;;;5039535;28;20040;-67
2021/06/14 05:53:55;;;;;;;13.65;4.43;;;19.50;99.90;;;;;;5039984;28;20033;-67
2021/06/14 05:56:20;;;;;;;12.90;4.70;;;19.70;99.90;;;;;;5035500;28;20523;-66
2021/06/14 05:58:46;;;;;;;10.32;4.35;;;19.80;99.90;;;;;;5040178;28;20047;-66
2021/06/14 06:01:11;;;;;;;10.05;4.68;;;20.10;99.90;;;;;;5034949;28;20041;-69
2021/06/14 06:03:37;;;;;;;18.75;5.38;;;20.30;99.90;;;;;;5040308;28;20036;-69
2021/06/14 06:06:03;;;;;;;11.38;4.78;;;20.40;99.90;;;;;;5036416;28;20325;-69
2021/06/14 06:08:28;;;;;;;12.43;4.15;;;20.60;99.40;;;;;;5035256;28;20033;-68
2021/06/14 06:10:54;;;;;;;13.35;4.43;;;20.80;98.50;;;;;;5033510;28;20052;-70
2021/06/14 06:13:19;;;;;;;13.07;4.22;;;21.00;98.50;;;;;;5036196;28;20096;-70
2021/06/14 06:15:45;;;;;;;11.25;4.40;;;21.20;98.80;;;;;;5044025;28;20045;-69
2021/06/14 06:18:10;;;;;;;17.38;4.35;;;21.40;98.00;;;;;;5037960;28;20029;-68
2021/06/14 06:20:36;;;;;;;19.20;4.43;;;21.60;97.70;;;;;;5037953;28;20051;-69
2021/06/14 06:23:03;;;;;;;8.88;3.95;;;21.80;97.10;;;;;;5038659;28;20309;-72
2021/06/14 06:25:29;;;;;;;11.43;3.80;;;22.00;95.80;;;;;;5040895;28;20102;-67
2021/06/14 06:27:54;;;;;;;12.70;4.40;;;22.20;94.40;;;;;;5043330;28;20041;-69
2021/06/14 06:30:23;;;;;;;11.18;3.75;;;22.10;94.10;;;;;;5041457;28;20033;-66
2021/06/14 06:32:49;;;;;;;21.45;3.88;;;22.30;94.20;;;;;;5042703;28;20025;-67
2021/06/14 06:35:15;;;;;;;9.73;3.83;;;22.50;92.00;;;;;;5037587;28;20040;-66
2021/06/14 06:37:41;;;;;;;5.60;2.58;;;22.60;91.80;;;;;;5038153;28;20069;-66
2021/06/14 06:40:08;;;;;;;6.82;3.22;;;22.70;91.10;;;;;;5041229;28;20061;-66
2021/06/14 06:42:34;;;;;;;9.82;3.50;;;22.90;90.70;;;;;;5038806;28;20049;-67
2021/06/14 06:45:00;;;;;;;15.05;3.90;;;23.10;90.00;;;;;;5036653;28;20485;-67
2021/06/14 06:47:25;;;;;;;7.90;3.25;;;23.20;90.00;;;;;;5041970;28;20033;-67
2021/06/14 06:49:51;;;;;;;10.38;3.25;;;23.40;89.00;;;;;;5039233;28;20037;-67
2021/06/14 06:52:17;;;;;;;12.15;3.35;;;23.80;85.90;;;;;;5036061;28;20040;-67
2021/06/14 06:54:43;;;;;;;20.55;3.65;;;24.00;84.10;;;;;;5041639;28;20044;-68
2021/06/14 06:57:09;;;;;;;9.90;3.10;;;24.20;82.40;;;;;;5037255;28;20032;-66
2021/06/14 06:59:34;;;;;;;8.77;3.15;;;24.40;83.20;;;;;;5043243;28;20472;-66
2021/06/14 07:02:00;;;;;;;7.18;3.30;;;24.70;84.50;;;;;;5041380;28;20045;-66
2021/06/14 07:04:25;;;;;;;13.73;3.70;;;24.90;83.10;;;;;;5038634;28;20040;-67
2021/06/14 07:06:51;;;;;;;6.65;3.50;;;25.20;77.90;;;;;;5040877;28;20024;-67
2021/06/14 07:09:17;;;;;;;9.05;3.40;;;25.50;77.00;;;;;;5039585;28;20056;-66
2021/06/14 07:11:43;;;;;;;7.22;3.45;;;25.90;75.90;;;;;;5040152;28;20038;-68
2021/06/14 07:14:09;;;;;;;8.10;2.67;;;26.20;73.70;;;;;;5035044;28;20048;-67
2021/06/14 07:16:35;;;;;;;11.82;3.72;;;26.60;71.50;;;;;;5037909;28;20375;-67
2021/06/14 07:19:02;;;;;;;8.65;3.40;;;27.00;70.00;;;;;;5037810;28;20463;-66
2021/06/14 07:21:28;;;;;;;9.07;3.15;;;27.50;68.70;;;;;;5042257;28;20043;-67
2021/06/14 07:23:54;;;;;;;10.85;4.05;;;27.70;66.10;;;;;;5040271;28;20409;-67
2021/06/14 07:26:20;;;;;;;10.13;4.45;;;27.90;65.70;;;;;;5039747;28;20400;-67
2021/06/14 07:28:46;;;;;;;7.47;4.05;;;28.30;64.50;;;;;;5041190;28;20037;-67
2021/06/14 07:31:13;;;;;;;9.95;4.18;;;28.50;62.10;;;;;;5038632;28;20570;-68
2021/06/14 07:33:39;;;;;;;11.65;4.55;;;28.70;60.70;;;;;;5038455;28;20033;-67
2021/06/14 07:36:07;;;;;;;8.50;3.70;;;28.80;58.70;;;;;;5040679;28;20037;-68
2021/06/14 07:38:32;;;;;;;10.80;4.13;;;29.00;57.90;;;;;;5039015;28;20039;-67
2021/06/14 07:40:59;;;;;;;9.15;4.38;;;29.20;57.80;;;;;;5036107;28;20539;-67
2021/06/14 07:43:25;;;;;;;11.75;5.03;;;29.50;57.40;;;;;;5043622;28;20029;-68
2021/06/14 07:45:52;;;;;;;16.85;5.25;;;29.50;54.70;;;;;;5039921;28;20128;-68
2021/06/14 07:48:18;;;;;;;10.38;4.47;;;29.40;56.00;;;;;;5037519;28;20025;-67
2021/06/14 07:50:45;;;;;;;11.45;5.55;;;29.50;56.40;;;;;;5036431;28;20033;-68
2021/06/14 07:53:11;;;;;;;13.57;5.47;;;29.60;55.70;;;;;;5041658;28;20471;-68
2021/06/14 07:55:37;;;;;;;11.10;5.53;;;29.60;54.80;;;;;;5040335;28;20033;-67
2021/06/14 07:58:04;;;;;;;13.70;5.57;;;29.60;55.50;;;;;;5036184;28;20036;-67
2021/06/14 08:00:29;;;;;;;11.35;5.53;;;29.70;55.80;;;;;;5038352;28;20175;-69
2021/06/14 08:02:55;;;;;;;14.38;5.50;;;29.80;55.30;;;;;;5036202;28;20040;-67
2021/06/14 08:05:22;;;;;;;13.82;5.95;;;29.90;54.60;;;;;;5035373;28;20115;-69
2021/06/14 08:07:48;;;;;;;15.18;5.22;;;30.00;54.30;;;;;;5038363;28;20083;-67
2021/06/14 08:10:16;;;;;;;12.30;5.32;;;30.10;52.60;;;;;;5039060;28;20457;-67
2021/06/14 08:12:49;;;;;;;10.60;5.50;;;30.40;53.50;;;;;;5035509;28;20057;-68
2021/06/14 08:15:20;;;;;;;10.27;4.82;;;30.80;50.00;;;;;;5034659;28;20037;-67
2021/06/14 08:17:47;;;;;;;12.60;5.80;;;30.30;51.30;;;;;;5037413;28;20107;-68
2021/06/14 08:20:31;;;;;;;10.13;4.03;;;30.30;52.60;;;;;;5037724;28;20033;-67
2021/06/14 08:25:41;;;;;;;10.13;4.97;;;31.40;49.50;;;;;;5039324;28;20036;-67
2021/06/14 08:28:07;;;;;;;13.98;5.18;;;31.60;49.00;;;;;;5041049;28;20341;-68
2021/06/14 08:30:33;;;;;;;13.27;4.95;;;31.80;48.20;;;;;;5038870;28;20045;-67
2021/06/14 08:32:59;;;;;;;16.08;5.70;;;31.70;47.70;;;;;;5036011;28;20048;-67
2021/06/14 08:35:28;;;;;;;12.43;5.20;;;31.50;48.50;;;;;;5037020;28;20032;-66
2021/06/14 08:37:54;;;;;;;10.20;4.83;;;31.60;48.70;;;;;;5039655;28;20037;-67
2021/06/14 08:40:23;;;;;;;11.07;4.70;;;31.50;48.20;;;;;;5040971;28;20091;-67
2021/06/14 08:42:50;;;;;;;10.90;5.00;;;31.60;47.20;;;;;;5038265;28;20043;-68
2021/06/14 08:45:17;;;;;;;11.45;4.82;;;31.50;47.90;;;;;;5035961;28;20168;-66
2021/06/14 08:47:45;;;;;;;12.27;5.60;;;31.40;48.30;;;;;;5040527;28;20500;-68
2021/06/14 08:50:13;;;;;;;9.98;4.82;;;31.10;48.00;;;;;;5041701;28;20836;-68
2021/06/14 08:52:40;;;;;;;8.10;4.20;;;31.30;49.10;;;;;;5036073;28;20041;-68
2021/06/14 08:55:09;;;;;;;7.80;4.25;;;31.40;48.50;;;;;;5034308;28;20041;-67
2021/06/14 08:57:35;;;;;;;10.45;4.25;;;31.20;47.80;;;;;;5036450;28;20029;-68
2021/06/14 09:00:02;;;;;;;8.63;3.70;;;31.50;48.10;;;;;;5037904;28;20661;-67
2021/06/14 09:02:27;;;;;;;7.63;3.70;;;31.60;47.00;;;;;;5037723;28;20177;-67
2021/06/14 09:04:53;;;;;;;8.48;3.45;;;31.80;46.00;;;;;;5037990;28;20048;-66
2021/06/14 09:07:18;;;;;;;12.88;3.70;;;31.70;46.30;;;;;;5036753;28;20577;-68
2021/06/14 09:09:45;;;;;;;9.13;4.05;;;31.70;47.90;;;;;;5037667;28;20473;-67
2021/06/14 09:12:11;;;;;;;7.15;3.47;;;31.60;47.80;;;;;;5041834;28;20095;-66
2021/06/14 09:14:39;;;;;;;10.48;3.42;;;31.50;46.50;;;;;;5039379;28;20614;-67
2021/06/14 09:17:09;;;;;;;7.00;3.07;;;31.40;46.60;;;;;;5033839;28;20037;-67
2021/06/14 09:19:38;;;;;;;11.68;3.17;;;31.10;47.20;;;;;;5038461;28;20075;-66
2021/06/14 09:22:19;;;;;;;8.63;3.25;;;31.10;47.40;;;;;;5037251;28;20515;-66
2021/06/14 09:24:52;;;;;;;9.52;2.15;;;31.10;47.20;;;;;;5032702;28;20040;-67
2021/06/14 09:27:33;;;;;;;5.07;2.08;;;31.00;47.40;;;;;;5040981;28;20037;-67
2021/06/14 09:30:26;;;;;;;7.72;2.45;;;31.00;46.80;;;;;;5044258;28;20033;-67
2021/06/14 09:32:59;;;;;;;5.38;2.20;;;30.80;47.00;;;;;;5041204;28;20058;-65
2021/06/14 09:35:32;;;;;;;7.88;2.05;;;30.60;47.10;;;;;;5033082;28;20084;-66
2021/06/14 09:38:18;;;;;;;6.28;2.20;;;30.50;47.80;;;;;;5040003;28;20489;-66
2021/06/14 09:40:52;;;;;;;6.10;1.80;;;30.30;46.20;;;;;;5035908;28;20039;-65
2021/06/14 09:43:22;;;;;;;8.40;2.33;;;30.30;47.10;;;;;;5034457;28;20428;-66
2021/06/14 09:45:47;;;;;;;5.50;1.98;;;30.10;47.60;;;;;;5033895;28;20096;-66
2021/06/14 09:48:21;;;;;;;11.70;2.75;;;30.00;48.60;;;;;;5035928;28;20481;-66
2021/06/14 09:50:49;;;;;;;6.32;2.13;;;30.00;48.10;;;;;;5041009;28;20175;-66
2021/06/14 09:53:17;;;;;;;7.95;2.33;;;29.90;48.40;;;;;;5036597;28;20527;-67
2021/06/14 09:55:44;;;;;;;5.28;2.25;;;29.90;48.40;;;;;;5042077;28;20036;-66
2021/06/14 09:58:10;;;;;;;7.53;2.33;;;29.70;47.20;;;;;;5036186;28;20536;-66
2021/06/14 10:00:36;;;;;;;3.92;1.52;;;29.70;47.30;;;;;;5041100;28;20037;-66
2021/06/14 10:03:01;;;;;;;6.53;2.00;;;29.70;47.80;;;;;;5037051;28;20418;-65
2021/06/14 10:05:27;;;;;;;7.22;1.88;;;29.80;47.00;;;;;;5038238;28;20105;-66
2021/06/14 10:07:54;;;;;;;4.55;1.50;;;29.70;47.70;;;;;;5040145;28;20044;-67
2021/06/14 10:10:21;;;;;;;7.40;1.83;;;29.90;46.90;;;;;;5041951;28;20033;-67
2021/06/14 10:12:58;;;;;;;7.03;2.33;;;29.90;47.50;;;;;;5042213;28;20259;-67
2021/06/14 10:15:36;;;;;;;6.13;1.77;;;30.00;47.80;;;;;;5035268;28;20039;-66
2021/06/14 10:18:08;;;;;;;8.70;1.92;;;30.20;47.40;;;;;;5042814;28;20520;-66
2021/06/14 10:20:36;;;;;;;5.38;1.70;;;30.20;49.00;;;;;;5043704;28;20041;-65
2021/06/14 10:23:02;;;;;;;7.22;1.67;;;30.20;47.40;;;;;;5038984;28;20067;-65
2021/06/14 10:25:28;;;;;;;4.60;1.80;;;30.30;46.80;;;;;;5042872;28;20116;-66
2021/06/14 10:27:54;;;;;;;4.90;1.60;;;30.20;47.10;;;;;;5041025;28;20120;-65
2021/06/14 10:30:23;;;;;;;7.00;1.92;;;30.20;47.40;;;;;;5039638;28;20041;-65
2021/06/14 10:32:49;;;;;;;6.70;2.20;;;30.20;46.60;;;;;;5040666;28;20552;-66
2021/06/14 10:35:17;;;;;;;5.30;1.40;;;30.30;47.50;;;;;;5042028;28;20033;-65
2021/06/14 10:37:49;;;;;;;4.55;1.85;;;30.30;43.80;;;;;;5042264;28;20044;-66
2021/06/14 10:40:17;;;;;;;5.85;1.92;;;30.20;45.80;;;;;;5037782;28;20492;-69
2021/06/14 10:42:45;;;;;;;7.68;1.85;;;30.20;46.40;;;;;;5043456;28;20378;-65
2021/06/14 10:45:24;;;;;;;5.35;1.40;;;30.30;45.50;;;;;;5040049;28;20413;-65
2021/06/14 10:47:50;;;;;;;6.55;1.55;;;30.30;45.80;;;;;;5040195;28;20477;-65
2021/06/14 10:50:21;;;;;;;2.70;1.33;;;30.30;47.10;;;;;;5038170;28;20037;-66
2021/06/14 10:52:47;;;;;;;5.03;1.50;;;30.30;46.30;;;;;;5037673;28;20361;-66
2021/06/14 10:55:35;;;;;;;3.95;1.80;;;30.30;46.90;;;;;;5041770;28;20512;-66
2021/06/14 10:58:06;;;;;;;4.97;1.73;;;30.30;46.40;;;;;;5041209;28;20040;-65
2021/06/14 11:00:35;;;;;;;4.35;1.30;;;30.20;45.90;;;;;;5041008;28;20029;-66
2021/06/14 11:03:03;;;;;;;2.67;1.10;;;30.20;45.50;;;;;;5037148;28;20045;-65
2021/06/14 11:05:32;;;;;;;10.15;1.73;;;30.30;43.00;;;;;;5042664;28;20049;-66
2021/06/14 11:07:57;;;;;;;7.00;1.37;;;30.20;44.90;;;;;;5037532;28;20083;-66
2021/06/14 11:10:27;;;;;;;3.20;1.25;;;30.20;44.20;;;;;;5039897;28;20048;-66
2021/06/14 11:12:53;;;;;;;7.07;1.75;;;30.10;42.90;;;;;;5041109;28;20124;-66
2021/06/14 11:15:21;;;;;;;7.25;1.55;;;30.10;44.30;;;;;;5034092;28;20123;-66
2021/06/14 11:17:47;;;;;;;4.78;1.95;;;30.10;44.00;;;;;;5036647;28;20512;-66
2021/06/14 11:20:13;;;;;;;7.53;1.50;;;30.10;44.00;;;;;;5035252;28;20077;-66
2021/06/14 11:22:43;;;;;;;6.60;2.10;;;30.20;44.70;;;;;;5039441;28;20056;-65
2021/06/14 11:25:18;;;;;;;6.35;1.63;;;30.10;45.80;;;;;;5033882;28;20052;-65
2021/06/14 11:27:43;;;;;;;8.73;1.83;;;30.20;46.80;;;;;;5036829;28;20053;-65
2021/06/14 11:30:14;;;;;;;7.80;2.42;;;30.20;46.00;;;;;;5038769;28;20116;-66
2021/06/14 11:32:40;;;;;;;8.65;2.15;;;30.10;45.40;;;;;;5040411;28;20048;-66
2021/06/14 11:35:07;;;;;;;8.25;1.70;;;30.10;45.90;;;;;;5040694;28;20029;-66
2021/06/14 11:37:40;;;;;;;6.10;1.67;;;30.00;45.40;;;;;;5038257;28;20120;-65
2021/06/14 11:40:09;;;;;;;5.78;1.50;;;30.10;47.40;;;;;;5041015;28;20095;-65
2021/06/14 11:42:43;;;;;;;7.68;2.17;;;30.10;46.80;;;;;;5032580;28;20040;-65
2021/06/14 11:45:21;;;;;;;10.52;1.58;;;30.30;46.20;;;;;;5036504;28;20032;-65
2021/06/14 11:47:47;;;;;;;8.48;1.88;;;30.20;46.20;;;;;;5033908;28;20059;-66
2021/06/14 11:50:12;;;;;;;6.38;1.75;;;30.20;45.70;;;;;;5032689;28;20440;-66
2021/06/14 11:52:38;;;;;;;9.75;1.70;;;30.10;45.40;;;;;;5035971;28;20043;-66
2021/06/14 11:55:07;;;;;;;5.95;2.75;;;30.10;45.90;;;;;;5039082;28;20051;-65
2021/06/14 11:57:35;;;;;;;4.90;1.77;;;30.10;46.30;;;;;;5034132;28;20041;-65
2021/06/14 12:00:03;;;;;;;5.05;1.88;;;30.10;46.10;;;;;;5036621;28;20029;-66
2021/06/14 12:02:29;;;;;;;2.90;1.33;;;30.10;45.90;;;;;;5037651;28;20112;-65
2021/06/14 12:04:57;;;;;;;6.30;1.60;;;30.00;43.80;;;;;;5037072;28;20045;-65
2021/06/14 12:07:41;;;;;;;5.88;1.77;;;29.80;45.20;;;;;;5041174;28;20033;-66
2021/06/14 12:10:08;;;;;;;5.85;1.50;;;29.80;44.50;;;;;;5038325;28;20056;-66
2021/06/14 12:12:35;;;;;;;5.15;1.30;;;29.80;44.90;;;;;;5037080;28;20032;-66
2021/06/14 12:15:02;;;;;;;4.47;1.83;;;29.80;46.00;;;;;;5036504;28;20165;-66
2021/06/14 12:17:34;;;;;;;6.35;1.92;;;29.70;44.90;;;;;;5036911;28;20037;-66
2021/06/14 12:20:00;;;;;;;6.13;1.92;;;29.70;44.70;;;;;;5032934;28;20085;-66
2021/06/14 12:22:28;;;;;;;5.43;2.25;;;29.60;45.90;;;;;;5037036;28;20371;-66
2021/06/14 12:24:59;;;;;;;10.02;2.10;;;29.50;46.30;;;;;;5037788;28;20317;-65
2021/06/14 12:27:26;;;;;;;8.80;2.08;;;29.50;46.70;;;;;;5038196;28;20093;-66
2021/06/14 12:29:57;;;;;;;12.02;2.40;;;29.60;47.20;;;;;;5040494;28;20036;-65
2021/06/14 12:32:23;;;;;;;6.35;2.38;;;29.50;47.60;;;;;;5036198;28;20033;-66
2021/06/14 12:34:49;;;;;;;7.68;1.83;;;29.60;47.30;;;;;;5040248;28;20055;-66
2021/06/14 12:37:24;;;;;;;8.13;2.97;;;29.50;46.20;;;;;;5037739;28;20081;-65
2021/06/14 12:39:59;;;;;;;5.40;1.70;;;29.50;47.50;;;;;;5039826;28;20514;-66
2021/06/14 12:42:27;;;;;;;5.95;1.90;;;29.50;47.20;;;;;;5035633;28;20076;-66
2021/06/14 12:45:14;;;;;;;10.95;2.38;;;29.50;47.80;;;;;;5033482;28;20124;-65
2021/06/14 12:47:43;;;;;;;8.90;2.63;;;29.60;47.60;;;;;;5036232;28;20094;-66
2021/06/14 12:50:16;;;;;;;7.53;2.25;;;29.60;49.70;;;;;;5037960;28;20048;-65
2021/06/14 12:52:41;;;;;;;6.15;1.95;;;29.60;49.70;;;;;;5038848;28;20037;-66